Terminal Aerodrome Forecast
Issued by NWS

Home | Current Version | Previous Version | Graphics & Text | Print | Product List | Glossary On
Versions: 1 2 3 4 5 6 7 8 9 10 11 12 13 14 15 16
005
FTUS42 KMHX 271120
TAFPGV
TAF
KPGV 271120Z 2712/2812 VRB04KT P6SM SKC
     FM271400 21008KT P6SM BKN050
     FM280200 20005KT P6SM BKN200
      AMD LTD TO CLD VIS AND WIND=

USA.gov is the U.S. government's official web portal to all federal, state and local government web resources and services.